createdAt,value
2022-08-07T00:00:35.784Z,16.37
2022-08-07T00:04:41.615Z,16.35
2022-08-07T00:08:47.152Z,16.32
2022-08-07T00:12:57.945Z,16.29
2022-08-07T00:17:03.153Z,16.28
2022-08-07T00:21:08.103Z,16.23
2022-08-07T00:25:28.771Z,16.16
2022-08-07T00:29:39.244Z,16.10
2022-08-07T00:33:41.659Z,16.09
2022-08-07T00:37:48.002Z,16.07
2022-08-07T00:42:02.444Z,16.04
2022-08-07T00:46:07.989Z,16.00
2022-08-07T00:50:20.696Z,15.96
2022-08-07T00:54:32.596Z,15.93
2022-08-07T00:58:34.454Z,15.87
2022-08-07T01:02:36.199Z,15.81
2022-08-07T01:06:41.359Z,15.78
2022-08-07T01:10:47.616Z,15.74
2022-08-07T01:15:01.611Z,15.69
2022-08-07T01:19:18.004Z,15.68
2022-08-07T01:23:35.403Z,15.63
2022-08-07T01:27:51.438Z,15.59
2022-08-07T01:31:54.400Z,15.54
2022-08-07T01:36:06.027Z,15.48
2022-08-07T01:40:15.433Z,15.41
2022-08-07T01:44:28.883Z,15.36
2022-08-07T01:48:32.728Z,15.30
2022-08-07T01:52:39.112Z,15.26
2022-08-07T01:56:56.422Z,15.20
2022-08-07T02:01:09.483Z,15.19
2022-08-07T02:05:47.768Z,15.17
2022-08-07T02:09:58.888Z,15.16
2022-08-07T02:14:03.269Z,15.18
2022-08-07T02:18:12.681Z,15.15
2022-08-07T02:22:20.171Z,15.16
2022-08-07T02:26:32.446Z,15.19
2022-08-07T02:30:36.858Z,15.19
2022-08-07T02:34:51.045Z,15.19
2022-08-07T02:38:57.275Z,15.17
2022-08-07T02:43:02.398Z,15.16
2022-08-07T02:47:19.833Z,15.15
2022-08-07T02:51:42.553Z,15.13
2022-08-07T02:56:02.213Z,15.10
2022-08-07T03:00:11.116Z,15.09
2022-08-07T03:04:15.157Z,15.08
2022-08-07T03:08:19.359Z,15.01
2022-08-07T03:12:31.225Z,14.99
2022-08-07T03:16:41.723Z,14.95
2022-08-07T03:20:44.808Z,14.93
2022-08-07T03:24:47.038Z,14.87
2022-08-07T03:28:49.310Z,14.84
2022-08-07T03:32:58.345Z,14.82
2022-08-07T03:37:12.127Z,14.80
2022-08-07T03:41:17.664Z,14.75
2022-08-07T03:45:31.026Z,14.71
2022-08-07T03:49:39.493Z,14.70
2022-08-07T03:54:05.694Z,14.70
2022-08-07T03:58:33.205Z,14.67
2022-08-07T04:02:29.076Z,14.67
2022-08-07T04:06:37.238Z,14.68
2022-08-07T04:10:42.605Z,14.65
2022-08-07T04:14:58.529Z,14.63
2022-08-07T04:19:12.638Z,14.62
2022-08-07T04:23:25.682Z,14.66
2022-08-07T04:27:58.939Z,14.67
2022-08-07T04:32:03.240Z,14.66
2022-08-07T04:36:14.632Z,14.68
2022-08-07T04:40:19.756Z,14.69
2022-08-07T04:44:23.686Z,14.70
2022-08-07T04:48:45.928Z,14.72
2022-08-07T04:52:59.661Z,14.73
2022-08-07T04:58:12.229Z,14.74
2022-08-07T05:02:28.662Z,14.74
2022-08-07T05:06:43.309Z,14.72
2022-08-07T05:10:58.528Z,14.74
2022-08-07T05:15:23.575Z,14.81
2022-08-07T05:19:44.812Z,14.88
2022-08-07T05:23:53.328Z,14.90
2022-08-07T05:28:02.926Z,15.00
2022-08-07T05:32:24.860Z,15.05
2022-08-07T05:36:35.241Z,15.12
2022-08-07T05:40:50.700Z,15.16
2022-08-07T05:45:14.514Z,15.25
2022-08-07T05:49:20.136Z,15.34
2022-08-07T05:54:13.867Z,15.43
2022-08-07T05:57:50.356Z,15.50
2022-08-07T06:01:54.305Z,15.63
2022-08-07T06:05:58.855Z,15.72
2022-08-07T06:10:05.365Z,15.85
2022-08-07T06:14:11.700Z,15.93
2022-08-07T06:18:25.184Z,16.06
2022-08-07T06:22:36.879Z,16.22
2022-08-07T06:26:54.163Z,16.39
2022-08-07T06:30:58.153Z,16.54
2022-08-07T06:35:01.113Z,16.67
2022-08-07T06:40:16.426Z,16.83
2022-08-07T06:43:26.693Z,16.96
2022-08-07T06:47:57.383Z,17.10
2022-08-07T06:52:07.449Z,17.36
2022-08-07T06:56:16.083Z,17.58
2022-08-07T07:00:22.793Z,17.80
2022-08-07T07:04:28.529Z,18.02
2022-08-07T07:08:35.296Z,18.27
2022-08-07T07:12:50.213Z,18.53
2022-08-07T07:16:59.575Z,18.79
2022-08-07T07:21:27.089Z,19.01
2022-08-07T07:26:32.086Z,19.25
2022-08-07T07:30:09.768Z,19.43
2022-08-07T07:34:18.897Z,19.79
2022-08-07T07:38:25.961Z,20.03
2022-08-07T07:42:32.816Z,20.20
2022-08-07T07:46:53.691Z,20.42
2022-08-07T07:50:59.521Z,20.63
2022-08-07T07:55:05.801Z,20.82
2022-08-07T07:59:09.580Z,21.07
2022-08-07T08:03:16.805Z,21.39
2022-08-07T08:07:42.422Z,21.44
2022-08-07T08:12:01.959Z,21.71
2022-08-07T08:16:06.319Z,22.10
2022-08-07T08:20:17.830Z,22.30
2022-08-07T08:24:48.083Z,22.49
2022-08-07T08:29:01.229Z,22.65
2022-08-07T08:33:10.216Z,22.87
2022-08-07T08:37:59.745Z,23.11
2022-08-07T08:41:59.404Z,23.37
2022-08-07T08:46:20.491Z,23.67
2022-08-07T08:50:39.427Z,23.99
2022-08-07T08:54:49.386Z,24.13
2022-08-07T08:59:14.000Z,24.39
2022-08-07T09:03:52.551Z,24.47
2022-08-07T09:08:17.788Z,24.70
2022-08-07T09:13:06.924Z,24.92
2022-08-07T09:17:59.622Z,25.04
2022-08-07T09:24:29.214Z,25.38
2022-08-07T09:26:51.122Z,25.41
2022-08-07T09:31:10.938Z,25.62
2022-08-07T09:36:03.326Z,25.79
2022-08-07T09:40:10.119Z,25.89
2022-08-07T09:45:03.357Z,25.96
2022-08-07T09:50:01.285Z,26.13
2022-08-07T09:53:50.086Z,26.52
2022-08-07T09:58:32.065Z,26.81
2022-08-07T10:02:54.983Z,26.90
2022-08-07T10:07:25.953Z,26.99
2022-08-07T10:12:02.358Z,27.21
2022-08-07T10:16:12.063Z,27.36
2022-08-07T10:20:44.429Z,27.50
2022-08-07T10:25:13.819Z,27.48
2022-08-07T10:29:24.356Z,27.53
2022-08-07T10:34:17.874Z,27.66
2022-08-07T10:38:48.362Z,27.85
2022-08-07T10:43:10.118Z,28.21
2022-08-07T10:47:52.681Z,28.48
2022-08-07T10:52:13.780Z,28.41
2022-08-07T10:56:36.730Z,28.37
2022-08-07T11:00:50.410Z,28.14
2022-08-07T11:05:10.240Z,28.11
2022-08-07T11:10:09.676Z,28.40
2022-08-07T11:14:46.452Z,28.69
2022-08-07T11:18:50.918Z,28.90
2022-08-07T11:23:09.221Z,29.16
2022-08-07T11:28:01.820Z,29.14
2022-08-07T11:32:13.410Z,29.33
2022-08-07T11:36:33.243Z,29.40
2022-08-07T11:40:35.838Z,29.43
2022-08-07T11:45:03.531Z,29.55
2022-08-07T11:49:51.493Z,29.87
2022-08-07T11:54:11.821Z,30.84
2022-08-07T11:58:33.446Z,31.46
2022-08-07T12:03:44.174Z,31.71
2022-08-07T12:08:03.518Z,32.22
2022-08-07T12:12:12.643Z,31.91
2022-08-07T12:16:30.077Z,32.48
2022-08-07T12:20:46.362Z,33.02
2022-08-07T12:26:21.596Z,33.54
2022-08-07T12:30:04.291Z,34.05
2022-08-07T12:34:11.211Z,34.09
2022-08-07T12:38:29.256Z,34.67
2022-08-07T12:42:38.040Z,35.18
2022-08-07T12:47:03.073Z,35.27
2022-08-07T12:51:50.923Z,35.66
2022-08-07T12:56:09.306Z,36.50
2022-08-07T13:00:16.263Z,36.73
2022-08-07T13:05:01.997Z,36.98
2022-08-07T13:10:19.805Z,37.06
2022-08-07T13:14:07.384Z,37.21
2022-08-07T13:18:49.062Z,37.05
2022-08-07T13:23:59.968Z,37.59
2022-08-07T13:28:11.029Z,37.90
2022-08-07T13:32:31.073Z,38.45
2022-08-07T13:36:45.121Z,39.26
2022-08-07T13:40:58.100Z,39.41
2022-08-07T13:46:06.251Z,40.06
2022-08-07T13:50:34.121Z,40.62
2022-08-07T13:54:07.399Z,40.66
2022-08-07T13:58:31.649Z,40.72
2022-08-07T14:02:49.297Z,40.43
2022-08-07T14:06:54.189Z,40.91
2022-08-07T14:11:01.075Z,40.74
2022-08-07T14:15:11.573Z,40.50
2022-08-07T14:20:43.382Z,41.04
2022-08-07T14:24:02.000Z,40.85
2022-08-07T14:28:12.861Z,39.48
2022-08-07T14:32:17.523Z,39.35
2022-08-07T14:36:23.602Z,37.54
2022-08-07T14:40:35.063Z,34.89
2022-08-07T14:44:40.326Z,33.44
2022-08-07T14:48:45.778Z,32.88
2022-08-07T14:52:50.696Z,32.61
2022-08-07T14:56:54.904Z,32.34
2022-08-07T15:00:59.526Z,31.84
2022-08-07T15:05:02.642Z,31.02
2022-08-07T15:13:36.793Z,30.35
2022-08-07T15:22:10.133Z,29.69
2022-08-07T15:26:36.455Z,29.36
2022-08-07T15:31:05.280Z,29.04
2022-08-07T15:35:04.067Z,28.84
2022-08-07T15:39:10.467Z,28.83
2022-08-07T15:43:53.868Z,29.11
2022-08-07T15:48:00.380Z,29.75
2022-08-07T15:52:02.999Z,30.36
2022-08-07T15:56:09.883Z,30.22
2022-08-07T16:00:31.100Z,30.03
2022-08-07T16:04:36.255Z,29.55
2022-08-07T16:08:45.458Z,29.23
2022-08-07T16:13:17.452Z,28.98
2022-08-07T16:18:02.640Z,28.78
2022-08-07T16:22:14.783Z,28.71
2022-08-07T16:26:31.233Z,28.81
2022-08-07T16:30:38.618Z,28.57
2022-08-07T16:34:50.992Z,28.39
2022-08-07T16:39:21.024Z,28.31
2022-08-07T16:44:03.812Z,28.25
2022-08-07T16:48:13.589Z,28.00
2022-08-07T16:53:14.689Z,27.95
2022-08-07T16:58:02.390Z,27.87
2022-08-07T17:02:08.986Z,27.79
2022-08-07T17:07:02.794Z,27.69
2022-08-07T17:11:16.810Z,27.61
2022-08-07T17:15:50.586Z,27.49
2022-08-07T17:20:01.571Z,27.39
2022-08-07T17:24:23.660Z,27.46
2022-08-07T17:28:38.229Z,27.59
2022-08-07T17:33:02.526Z,27.47
2022-08-07T17:38:09.307Z,27.29
2022-08-07T17:42:02.295Z,27.13
2022-08-07T17:46:13.957Z,27.06
2022-08-07T17:50:23.568Z,26.97
2022-08-07T17:55:02.024Z,26.87
2022-08-07T17:59:35.899Z,26.84
2022-08-07T18:04:06.621Z,26.81
2022-08-07T18:09:01.460Z,26.91
2022-08-07T18:13:23.106Z,26.81
2022-08-07T18:18:33.196Z,26.80
2022-08-07T18:22:15.078Z,26.54
2022-08-07T18:26:26.443Z,26.28
2022-08-07T18:30:43.339Z,26.13
2022-08-07T18:35:10.509Z,25.95
2022-08-07T18:40:05.837Z,25.73
2022-08-07T18:44:24.183Z,25.45
2022-08-07T18:50:05.111Z,25.12
2022-08-07T18:53:16.458Z,24.78
2022-08-07T18:57:42.251Z,24.48
2022-08-07T19:02:18.591Z,24.23
2022-08-07T19:06:48.208Z,23.94
2022-08-07T19:10:59.571Z,23.71
2022-08-07T19:16:05.105Z,23.52
2022-08-07T19:20:29.833Z,23.27
2022-08-07T19:24:44.381Z,23.05
2022-08-07T19:30:54.295Z,22.86
2022-08-07T19:33:16.805Z,22.65
2022-08-07T19:37:22.352Z,22.48
2022-08-07T19:41:44.489Z,22.32
2022-08-07T19:46:07.627Z,22.15
2022-08-07T19:50:43.688Z,21.99
2022-08-07T19:54:45.322Z,21.82
2022-08-07T19:59:00.807Z,21.72
2022-08-07T20:03:32.755Z,21.61
2022-08-07T20:07:46.142Z,21.51
2022-08-07T20:12:23.395Z,21.38
2022-08-07T20:16:34.922Z,21.27
2022-08-07T20:20:39.545Z,21.15
2022-08-07T20:24:47.329Z,21.11
2022-08-07T20:28:53.897Z,21.06
2022-08-07T20:32:59.874Z,20.99
2022-08-07T20:37:03.304Z,20.93
2022-08-07T20:41:08.195Z,20.88
2022-08-07T20:45:33.184Z,20.85
2022-08-07T20:50:00.532Z,20.78
2022-08-07T20:54:11.788Z,20.69
2022-08-07T20:58:19.557Z,20.62
2022-08-07T21:02:53.828Z,20.55
2022-08-07T21:07:04.522Z,20.42
2022-08-07T21:11:22.138Z,20.33
2022-08-07T21:15:58.669Z,20.21
2022-08-07T21:20:09.829Z,20.12
2022-08-07T21:24:20.835Z,20.08
2022-08-07T21:28:49.215Z,20.01
2022-08-07T21:33:03.183Z,19.94
2022-08-07T21:37:10.316Z,19.93
2022-08-07T21:41:52.175Z,19.94
2022-08-07T21:46:24.475Z,19.93
2022-08-07T21:50:45.549Z,19.95
2022-08-07T21:55:19.386Z,19.90
2022-08-07T22:00:05.570Z,19.90
2022-08-07T22:04:20.200Z,19.87
2022-08-07T22:08:26.196Z,19.83
2022-08-07T22:12:34.995Z,19.77
2022-08-07T22:16:53.060Z,19.73
2022-08-07T22:21:06.604Z,19.69
2022-08-07T22:25:19.855Z,19.65
2022-08-07T22:29:49.589Z,19.62
2022-08-07T22:33:59.325Z,19.62
2022-08-07T22:38:20.492Z,19.58
2022-08-07T22:42:30.455Z,19.55
2022-08-07T22:47:08.703Z,19.49
2022-08-07T22:51:38.034Z,19.45
2022-08-07T22:55:59.701Z,19.44
2022-08-07T23:00:28.761Z,19.42
2022-08-07T23:04:33.605Z,19.40
2022-08-07T23:08:58.572Z,19.35
2022-08-07T23:13:49.045Z,19.35
2022-08-07T23:18:20.827Z,19.31
2022-08-07T23:22:32.437Z,19.28
2022-08-07T23:27:02.983Z,19.21
2022-08-07T23:34:21.734Z,19.16
2022-08-07T23:36:22.882Z,19.17
2022-08-07T23:41:07.966Z,19.19
2022-08-07T23:46:01.610Z,19.11
2022-08-07T23:50:01.019Z,19.05
2022-08-07T23:54:28.452Z,19.02
2022-08-07T23:58:55.875Z,18.99
